Stations météo

réclame
Mon MeteoGroup
Great Dun Fell, Grande-Bretagne (3227): Température de l'air & dewpoint: 24.09.2020 21:00:00 - 30.09.2020 21:00:00 (BST)Great Dun Fell, Grande-Bretagne (3227): Vitesse du vent & gusts: 24.09.2020 21:00:00 - 30.09.2020 21:00:00 (BST)Great Dun Fell, Grande-Bretagne (3227): Direction du vent: 24.09.2020 21:00:00 - 30.09.2020 21:00:00 (BST)
Date & Time tt [°C] td [°C] ff [km/h] ff [knt] fx [km/h] fx [knt] dd
30.09.2020 21:00:00 7,4 7,4 26 14 - - SW
30.09.2020 20:00:00 7,4 7,4 29 16 - - SW
30.09.2020 19:00:00 7,6 7,6 39 21 54 29 SSW
30.09.2020 18:00:00 7,7 7,7 41 22 65 35 SSW
30.09.2020 17:00:00 7,6 7,6 54 29 72 39 SSW
30.09.2020 16:00:00 7,6 7,6 67 36 81 44 SSW
30.09.2020 15:00:00 7,4 7,4 65 35 85 46 SSW
30.09.2020 14:00:00 6,9 6,9 61 33 81 44 SSW
30.09.2020 13:00:00 6,5 6,5 63 34 81 44 S
30.09.2020 12:00:00 6,1 6,0 63 34 76 41 SSW
30.09.2020 11:00:00 5,7 5,7 61 33 74 40 SSW
30.09.2020 10:00:00 5,4 5,4 61 33 78 42 S
30.09.2020 09:00:00 5,4 5,4 63 34 80 43 S
30.09.2020 08:00:00 5,5 5,5 63 34 78 42 SSW
30.09.2020 07:00:00 5,0 5,0 48 26 65 35 SSW
30.09.2020 06:00:00 4,9 4,9 48 26 65 35 SSW
30.09.2020 05:00:00 4,8 4,3 54 29 65 35 SSW
30.09.2020 04:00:00 4,6 4,6 52 28 67 36 SSW
30.09.2020 03:00:00 4,6 4,5 57 31 70 38 SSW
30.09.2020 02:00:00 5,1 5,0 52 28 61 33 SSW
30.09.2020 01:00:00 5,4 5,4 48 26 63 34 SSW
30.09.2020 00:00:00 6,0 5,4 54 29 65 35 SSW
29.09.2020 23:00:00 5,6 4,9 35 19 - - SSW
29.09.2020 22:00:00 5,3 4,6 35 19 - - SSW
29.09.2020 21:00:00 4,6 4,6 28 15 - - SSW
29.09.2020 20:00:00 5,1 5,1 26 14 - - SSW
29.09.2020 19:00:00 5,5 5,5 29 16 - - SW
29.09.2020 18:00:00 6,1 4,3 34 18 - - SW
29.09.2020 17:00:00 6,9 1,7 34 18 - - SSW
29.09.2020 16:00:00 6,9 1,1 24 13 - - SW
29.09.2020 15:00:00 7,0 1,5 24 13 - - WSW
29.09.2020 14:00:00 6,1 0,9 16 9 - - W
29.09.2020 13:00:00 5,8 1,6 13 7 - - WSW
29.09.2020 12:00:00 5,8 -0,2 11 6 - - W
29.09.2020 11:00:00 5,3 -3,0 8 4 - - NW
29.09.2020 10:00:00 4,9 -1,6 13 7 - - WNW
29.09.2020 09:00:00 4,5 -0,2 15 8 - - WNW
29.09.2020 08:00:00 4,9 1,9 22 12 - - NW
29.09.2020 07:00:00 4,9 4,5 22 12 - - WNW
29.09.2020 06:00:00 4,1 4,1 21 11 - - W
29.09.2020 05:00:00 3,9 3,9 21 11 - - WNW
29.09.2020 04:00:00 4,1 4,1 21 11 - - WNW
29.09.2020 03:00:00 5,0 4,3 18 10 - - WNW
29.09.2020 02:00:00 5,4 5,3 21 11 - - NW
29.09.2020 01:00:00 5,8 5,8 21 11 - - WNW
29.09.2020 00:00:00 5,9 5,9 21 11 - - NW
28.09.2020 23:00:00 6,2 6,2 21 11 - - NNW
28.09.2020 22:00:00 6,8 6,8 24 13 - - NNW
28.09.2020 21:00:00 7,4 7,4 31 17 - - NNW
28.09.2020 20:00:00 7,6 7,6 31 17 - - NNW
28.09.2020 19:00:00 8,6 8,6 24 13 - - WNW
28.09.2020 18:00:00 8,6 8,6 26 14 - - W
28.09.2020 17:00:00 8,6 8,6 29 16 - - WSW
28.09.2020 16:00:00 8,0 7,9 26 14 - - SW
28.09.2020 15:00:00 8,5 6,9 26 14 - - SW
28.09.2020 14:00:00 8,1 7,3 31 17 - - WSW
28.09.2020 13:00:00 7,3 6,9 22 12 - - WSW
28.09.2020 12:00:00 6,8 5,4 13 7 - - WSW
28.09.2020 11:00:00 6,5 4,4 26 14 - - WSW
28.09.2020 10:00:00 7,3 5,3 21 11 - - W
28.09.2020 09:00:00 6,7 -5,5 18 10 - - W
28.09.2020 08:00:00 6,6 -14,6 21 11 - - W
28.09.2020 07:00:00 5,8 -10,7 24 13 - - W
28.09.2020 06:00:00 5,5 -7,5 22 12 - - WSW
28.09.2020 05:00:00 6,5 -9,4 11 6 - - SW
28.09.2020 04:00:00 4,2 1,6 21 11 - - SW
28.09.2020 03:00:00 3,6 2,2 21 11 - - WSW
28.09.2020 02:00:00 6,4 2,2 13 7 - - SW
28.09.2020 01:00:00 4,1 2,9 18 10 - - WSW
28.09.2020 00:00:00 4,3 2,2 11 6 - - WSW
27.09.2020 23:00:00 4,5 1,6 13 7 - - W
27.09.2020 22:00:00 5,5 2,6 9 5 - - W
27.09.2020 21:00:00 5,3 1,6 5 3 - - NW
27.09.2020 20:00:00 5,2 2,0 5 3 - - W
27.09.2020 19:00:00 5,4 2,0 8 4 - - N
27.09.2020 18:00:00 6,4 -4,4 18 10 - - W
27.09.2020 17:00:00 6,1 -0,7 16 9 - - W
27.09.2020 16:00:00 6,3 -3,4 9 5 - - NW
27.09.2020 15:00:00 6,4 -4,6 4 2 - - NNE
27.09.2020 14:00:00 5,0 0,3 28 15 - - NE
27.09.2020 13:00:00 4,1 -0,2 15 8 - - NNE
27.09.2020 12:00:00 3,2 -0,7 21 11 - - NE
27.09.2020 11:00:00 2,3 -0,9 22 12 - - NE
27.09.2020 10:00:00 1,4 0,7 22 12 - - NE
27.09.2020 09:00:00 0,8 0,6 29 16 - - NE
27.09.2020 08:00:00 1,0 0,8 26 14 46 25 NE
27.09.2020 07:00:00 1,0 0,8 29 16 50 27 NE
27.09.2020 06:00:00 1,0 0,9 35 19 52 28 NE
27.09.2020 05:00:00 1,2 1,1 35 19 57 31 NE
27.09.2020 04:00:00 1,4 1,2 37 20 67 36 NE
27.09.2020 03:00:00 1,5 1,4 39 21 61 33 NE
27.09.2020 02:00:00 1,5 1,3 41 22 72 39 NE
27.09.2020 01:00:00 1,7 1,5 48 26 72 39 NNE
27.09.2020 00:00:00 1,7 1,5 48 26 70 38 NNE
26.09.2020 23:00:00 2,3 2,2 50 27 78 42 NNE
26.09.2020 22:00:00 2,5 2,4 48 26 76 41 NNE
26.09.2020 21:00:00 2,9 2,2 54 29 83 45 NNE
26.09.2020 20:00:00 3,2 2,1 61 33 80 43 NNE
26.09.2020 19:00:00 3,6 2,4 46 25 70 38 NE
26.09.2020 18:00:00 4,2 1,3 41 22 78 42 NNE
26.09.2020 17:00:00 4,7 2,1 44 24 78 42 NNE
26.09.2020 16:00:00 4,8 2,0 54 29 78 42 NE
26.09.2020 15:00:00 4,3 3,6 50 27 85 46 NE
26.09.2020 14:00:00 3,1 3,0 50 27 74 40 NNE
26.09.2020 13:00:00 3,0 2,8 48 26 72 39 NNE
26.09.2020 12:00:00 2,2 1,9 35 19 74 40 N
26.09.2020 11:00:00 1,6 1,3 42 23 72 39 NNE
26.09.2020 10:00:00 1,1 0,7 42 23 65 35 N
26.09.2020 09:00:00 0,0 -0,1 46 25 63 34 NNE
26.09.2020 08:00:00 -0,5 -0,7 37 20 55 30 N
26.09.2020 07:00:00 -0,4 -0,6 39 21 67 36 N
26.09.2020 06:00:00 -0,6 -0,7 57 31 70 38 N
26.09.2020 05:00:00 -0,6 -0,7 55 30 63 34 N
26.09.2020 04:00:00 -0,8 -0,9 39 21 61 33 N
26.09.2020 03:00:00 -0,4 -0,5 44 24 63 34 N
26.09.2020 02:00:00 -1,0 -1,1 26 14 52 28 N
26.09.2020 01:00:00 -0,5 -0,7 42 23 54 29 N
26.09.2020 00:00:00 0,1 -0,1 28 15 46 25 N
25.09.2020 23:00:00 0,6 0,5 26 14 48 26 N
25.09.2020 22:00:00 1,1 0,9 31 17 54 29 N
25.09.2020 21:00:00 1,6 1,5 31 17 54 29 N
25.09.2020 20:00:00 2,2 2,0 34 18 61 33 N
25.09.2020 19:00:00 3,2 3,0 37 20 61 33 NNE
25.09.2020 18:00:00 3,6 3,4 35 19 68 37 N
25.09.2020 17:00:00 4,0 3,8 52 28 74 40 N
25.09.2020 16:00:00 3,7 3,6 44 24 65 35 N
25.09.2020 15:00:00 4,3 4,2 52 28 67 36 N
25.09.2020 14:00:00 4,2 4,0 57 31 81 44 N
25.09.2020 13:00:00 4,3 4,1 44 24 70 38 N
25.09.2020 12:00:00 4,0 3,8 42 23 72 39 N
25.09.2020 11:00:00 3,2 3,0 50 27 76 41 N
25.09.2020 10:00:00 2,3 2,1 48 26 81 44 N
25.09.2020 09:00:00 1,8 1,6 61 33 83 45 NNE
25.09.2020 08:00:00 1,4 1,2 59 32 80 43 NNE
25.09.2020 07:00:00 1,2 1,1 52 28 72 39 NNE
25.09.2020 06:00:00 1,3 1,1 41 22 63 34 N
25.09.2020 05:00:00 1,4 1,2 46 25 68 37 NNE
25.09.2020 04:00:00 1,1 1,0 55 30 68 37 NNE
25.09.2020 03:00:00 1,0 0,9 46 25 63 34 NE
25.09.2020 02:00:00 1,3 1,1 48 26 68 37 NE
25.09.2020 01:00:00 1,3 1,2 55 30 78 42 NE
25.09.2020 00:00:00 1,9 1,9 63 34 83 45 NE
24.09.2020 23:00:00 1,3 1,3 72 39 83 45 ENE
24.09.2020 22:00:00 2,1 2,1 55 30 68 37 ENE
24.09.2020 21:00:00 1,7 1,7 59 32 74 40 ENE

tt = Température de l'air
td = dewpoint
ff = Vitesse du vent
fx = gusts
dd = Direction du vent

stations d'obs. à proximité